sensor_id;sensor_type;location;lat;lon;timestamp;P1;durP1;ratioP1;P2;durP2;ratioP2
26201;SDS011;13944;28.562;77.188;2022-10-16T00:01:09;196.32;;;113.32;;
26201;SDS011;13944;28.562;77.188;2022-10-16T00:03:36;178.75;;;114.05;;
26201;SDS011;13944;28.562;77.188;2022-10-16T00:06:03;173.60;;;114.15;;
26201;SDS011;13944;28.562;77.188;2022-10-16T00:08:30;171.50;;;111.90;;
26201;SDS011;13944;28.562;77.188;2022-10-16T00:11:04;163.93;;;110.80;;
26201;SDS011;13944;28.562;77.188;2022-10-16T00:13:31;164.90;;;113.30;;
26201;SDS011;13944;28.562;77.188;2022-10-16T00:15:59;173.82;;;110.63;;
26201;SDS011;13944;28.562;77.188;2022-10-16T00:18:26;169.45;;;113.90;;
26201;SDS011;13944;28.562;77.188;2022-10-16T00:20:53;166.50;;;111.10;;
26201;SDS011;13944;28.562;77.188;2022-10-16T00:23:20;170.13;;;113.55;;
26201;SDS011;13944;28.562;77.188;2022-10-16T00:25:57;171.27;;;110.20;;
26201;SDS011;13944;28.562;77.188;2022-10-16T00:28:24;167.55;;;112.80;;
26201;SDS011;13944;28.562;77.188;2022-10-16T00:30:50;173.50;;;114.07;;
26201;SDS011;13944;28.562;77.188;2022-10-16T00:33:17;167.75;;;114.13;;
26201;SDS011;13944;28.562;77.188;2022-10-16T00:35:43;169.02;;;113.47;;
26201;SDS011;13944;28.562;77.188;2022-10-16T00:38:10;156.35;;;107.88;;
26201;SDS011;13944;28.562;77.188;2022-10-16T00:40:36;160.18;;;111.78;;
26201;SDS011;13944;28.562;77.188;2022-10-16T00:43:08;159.27;;;110.03;;
26201;SDS011;13944;28.562;77.188;2022-10-16T00:45:35;166.20;;;109.45;;
26201;SDS011;13944;28.562;77.188;2022-10-16T00:48:02;162.25;;;108.10;;
26201;SDS011;13944;28.562;77.188;2022-10-16T00:52:55;157.73;;;109.10;;
26201;SDS011;13944;28.562;77.188;2022-10-16T00:55:22;163.98;;;110.10;;
26201;SDS011;13944;28.562;77.188;2022-10-16T00:57:49;167.48;;;112.07;;
26201;SDS011;13944;28.562;77.188;2022-10-16T01:00:20;160.07;;;110.63;;
26201;SDS011;13944;28.562;77.188;2022-10-16T01:02:54;162.48;;;111.00;;
26201;SDS011;13944;28.562;77.188;2022-10-16T01:05:22;158.52;;;109.70;;
26201;SDS011;13944;28.562;77.188;2022-10-16T01:08:12;163.02;;;110.35;;
26201;SDS011;13944;28.562;77.188;2022-10-16T01:15:47;183.27;;;111.70;;
26201;SDS011;13944;28.562;77.188;2022-10-16T01:18:27;174.70;;;113.18;;
26201;SDS011;13944;28.562;77.188;2022-10-16T01:21:05;165.20;;;112.15;;
26201;SDS011;13944;28.562;77.188;2022-10-16T01:29:09;218.32;;;120.20;;
26201;SDS011;13944;28.562;77.188;2022-10-16T01:31:17;239.15;;;120.00;;
26201;SDS011;13944;28.562;77.188;2022-10-16T01:33:48;220.00;;;117.22;;
26201;SDS011;13944;28.562;77.188;2022-10-16T01:36:18;189.25;;;116.80;;
26201;SDS011;13944;28.562;77.188;2022-10-16T01:38:47;307.95;;;128.52;;
26201;SDS011;13944;28.562;77.188;2022-10-16T01:41:17;224.60;;;120.15;;
26201;SDS011;13944;28.562;77.188;2022-10-16T01:43:46;178.90;;;115.18;;
26201;SDS011;13944;28.562;77.188;2022-10-16T01:46:15;169.55;;;113.82;;
26201;SDS011;13944;28.562;77.188;2022-10-16T01:48:43;179.23;;;117.55;;
26201;SDS011;13944;28.562;77.188;2022-10-16T01:51:10;167.88;;;116.57;;
26201;SDS011;13944;28.562;77.188;2022-10-16T01:53:38;163.80;;;112.57;;
26201;SDS011;13944;28.562;77.188;2022-10-16T01:56:06;158.73;;;113.22;;
26201;SDS011;13944;28.562;77.188;2022-10-16T01:58:35;169.27;;;114.38;;
26201;SDS011;13944;28.562;77.188;2022-10-16T02:01:03;163.85;;;112.57;;
26201;SDS011;13944;28.562;77.188;2022-10-16T02:03:30;167.32;;;113.18;;
26201;SDS011;13944;28.562;77.188;2022-10-16T02:05:58;175.93;;;114.75;;
26201;SDS011;13944;28.562;77.188;2022-10-16T02:08:25;182.73;;;115.53;;
26201;SDS011;13944;28.562;77.188;2022-10-16T02:10:57;166.68;;;111.68;;
26201;SDS011;13944;28.562;77.188;2022-10-16T02:13:34;167.05;;;113.97;;
26201;SDS011;13944;28.562;77.188;2022-10-16T02:16:02;171.55;;;115.22;;
26201;SDS011;13944;28.562;77.188;2022-10-16T02:18:28;161.43;;;116.15;;
26201;SDS011;13944;28.562;77.188;2022-10-16T02:20:57;191.90;;;116.57;;
26201;SDS011;13944;28.562;77.188;2022-10-16T02:23:30;183.38;;;112.60;;
26201;SDS011;13944;28.562;77.188;2022-10-16T02:25:59;158.07;;;111.20;;
26201;SDS011;13944;28.562;77.188;2022-10-16T02:28:29;164.50;;;114.88;;
26201;SDS011;13944;28.562;77.188;2022-10-16T02:31:00;155.77;;;111.93;;
26201;SDS011;13944;28.562;77.188;2022-10-16T02:33:28;167.65;;;116.30;;
26201;SDS011;13944;28.562;77.188;2022-10-16T02:35:55;168.13;;;116.40;;
26201;SDS011;13944;28.562;77.188;2022-10-16T02:38:23;165.15;;;116.00;;
26201;SDS011;13944;28.562;77.188;2022-10-16T02:40:51;168.23;;;116.45;;
26201;SDS011;13944;28.562;77.188;2022-10-16T02:43:17;165.80;;;117.10;;
26201;SDS011;13944;28.562;77.188;2022-10-16T02:45:44;161.55;;;115.47;;
26201;SDS011;13944;28.562;77.188;2022-10-16T02:48:11;164.60;;;112.72;;
26201;SDS011;13944;28.562;77.188;2022-10-16T02:50:37;168.18;;;110.22;;
26201;SDS011;13944;28.562;77.188;2022-10-16T02:53:04;145.43;;;106.85;;
26201;SDS011;13944;28.562;77.188;2022-10-16T02:55:30;157.75;;;111.28;;
26201;SDS011;13944;28.562;77.188;2022-10-16T02:57:57;163.23;;;109.95;;
26201;SDS011;13944;28.562;77.188;2022-10-16T03:00:24;165.25;;;109.32;;
26201;SDS011;13944;28.562;77.188;2022-10-16T03:02:50;146.05;;;106.13;;
26201;SDS011;13944;28.562;77.188;2022-10-16T03:05:17;153.85;;;107.47;;
26201;SDS011;13944;28.562;77.188;2022-10-16T03:07:44;150.85;;;107.47;;
26201;SDS011;13944;28.562;77.188;2022-10-16T03:10:10;151.50;;;106.47;;
26201;SDS011;13944;28.562;77.188;2022-10-16T03:12:37;143.80;;;105.68;;
26201;SDS011;13944;28.562;77.188;2022-10-16T03:15:03;157.90;;;109.65;;
26201;SDS011;13944;28.562;77.188;2022-10-16T03:17:31;157.23;;;108.65;;
26201;SDS011;13944;28.562;77.188;2022-10-16T03:19:57;149.50;;;108.22;;
26201;SDS011;13944;28.562;77.188;2022-10-16T03:22:24;152.27;;;110.78;;
26201;SDS011;13944;28.562;77.188;2022-10-16T03:24:50;162.27;;;113.40;;
26201;SDS011;13944;28.562;77.188;2022-10-16T03:27:17;156.23;;;111.38;;
26201;SDS011;13944;28.562;77.188;2022-10-16T03:29:43;152.90;;;110.25;;
26201;SDS011;13944;28.562;77.188;2022-10-16T03:32:10;152.25;;;107.28;;
26201;SDS011;13944;28.562;77.188;2022-10-16T03:34:36;152.00;;;108.80;;
26201;SDS011;13944;28.562;77.188;2022-10-16T03:37:03;149.02;;;107.00;;
26201;SDS011;13944;28.562;77.188;2022-10-16T03:39:30;151.10;;;108.65;;
26201;SDS011;13944;28.562;77.188;2022-10-16T03:41:56;159.10;;;108.10;;
26201;SDS011;13944;28.562;77.188;2022-10-16T03:44:23;159.35;;;107.63;;
26201;SDS011;13944;28.562;77.188;2022-10-16T03:46:49;149.88;;;108.45;;
26201;SDS011;13944;28.562;77.188;2022-10-16T03:49:16;141.93;;;106.63;;
26201;SDS011;13944;28.562;77.188;2022-10-16T03:51:42;152.50;;;105.72;;
26201;SDS011;13944;28.562;77.188;2022-10-16T03:54:09;149.52;;;110.63;;
26201;SDS011;13944;28.562;77.188;2022-10-16T03:56:36;149.30;;;107.43;;
26201;SDS011;13944;28.562;77.188;2022-10-16T03:59:02;165.18;;;109.07;;
26201;SDS011;13944;28.562;77.188;2022-10-16T04:01:29;159.88;;;110.97;;
26201;SDS011;13944;28.562;77.188;2022-10-16T04:03:55;172.98;;;123.07;;
26201;SDS011;13944;28.562;77.188;2022-10-16T04:06:22;165.32;;;115.72;;
26201;SDS011;13944;28.562;77.188;2022-10-16T04:08:48;161.88;;;115.13;;
26201;SDS011;13944;28.562;77.188;2022-10-16T04:11:15;154.88;;;114.00;;
26201;SDS011;13944;28.562;77.188;2022-10-16T04:13:41;158.70;;;113.03;;
26201;SDS011;13944;28.562;77.188;2022-10-16T04:16:08;164.98;;;113.53;;
26201;SDS011;13944;28.562;77.188;2022-10-16T04:18:35;158.05;;;115.18;;
26201;SDS011;13944;28.562;77.188;2022-10-16T04:21:06;160.05;;;115.28;;
26201;SDS011;13944;28.562;77.188;2022-10-16T04:23:32;148.30;;;114.05;;
26201;SDS011;13944;28.562;77.188;2022-10-16T04:25:59;147.32;;;111.18;;
26201;SDS011;13944;28.562;77.188;2022-10-16T04:28:26;162.50;;;118.40;;
26201;SDS011;13944;28.562;77.188;2022-10-16T04:30:53;178.10;;;125.32;;
26201;SDS011;13944;28.562;77.188;2022-10-16T04:33:19;162.35;;;119.80;;
26201;SDS011;13944;28.562;77.188;2022-10-16T04:35:46;161.32;;;116.90;;
26201;SDS011;13944;28.562;77.188;2022-10-16T04:38:13;180.57;;;128.02;;
26201;SDS011;13944;28.562;77.188;2022-10-16T04:40:41;159.77;;;117.07;;
26201;SDS011;13944;28.562;77.188;2022-10-16T04:43:08;168.38;;;116.70;;
26201;SDS011;13944;28.562;77.188;2022-10-16T04:45:34;170.13;;;115.45;;
26201;SDS011;13944;28.562;77.188;2022-10-16T04:48:01;155.95;;;116.22;;
26201;SDS011;13944;28.562;77.188;2022-10-16T04:50:27;164.30;;;118.63;;
26201;SDS011;13944;28.562;77.188;2022-10-16T04:52:54;170.63;;;119.80;;
26201;SDS011;13944;28.562;77.188;2022-10-16T04:55:20;171.75;;;119.57;;
26201;SDS011;13944;28.562;77.188;2022-10-16T04:57:47;161.25;;;114.45;;
26201;SDS011;13944;28.562;77.188;2022-10-16T05:00:13;171.93;;;119.38;;
26201;SDS011;13944;28.562;77.188;2022-10-16T05:02:40;180.57;;;121.05;;
26201;SDS011;13944;28.562;77.188;2022-10-16T05:05:06;151.85;;;114.22;;
26201;SDS011;13944;28.562;77.188;2022-10-16T05:07:33;162.45;;;116.82;;
26201;SDS011;13944;28.562;77.188;2022-10-16T05:09:59;158.88;;;113.70;;
26201;SDS011;13944;28.562;77.188;2022-10-16T05:12:26;146.88;;;106.30;;
26201;SDS011;13944;28.562;77.188;2022-10-16T05:14:52;150.07;;;108.68;;
26201;SDS011;13944;28.562;77.188;2022-10-16T05:17:24;137.00;;;104.82;;
26201;SDS011;13944;28.562;77.188;2022-10-16T05:19:50;151.48;;;104.72;;
26201;SDS011;13944;28.562;77.188;2022-10-16T05:22:17;153.93;;;110.00;;
26201;SDS011;13944;28.562;77.188;2022-10-16T05:24:43;161.80;;;109.32;;
26201;SDS011;13944;28.562;77.188;2022-10-16T05:27:10;158.02;;;107.60;;
26201;SDS011;13944;28.562;77.188;2022-10-16T05:29:46;142.95;;;106.38;;
26201;SDS011;13944;28.562;77.188;2022-10-16T05:32:13;148.05;;;104.97;;
26201;SDS011;13944;28.562;77.188;2022-10-16T05:34:40;141.65;;;101.38;;
26201;SDS011;13944;28.562;77.188;2022-10-16T05:37:07;138.77;;;99.10;;
26201;SDS011;13944;28.562;77.188;2022-10-16T05:39:33;134.15;;;101.93;;
26201;SDS011;13944;28.562;77.188;2022-10-16T05:42:00;134.98;;;99.03;;
26201;SDS011;13944;28.562;77.188;2022-10-16T05:44:26;151.43;;;102.45;;
26201;SDS011;13944;28.562;77.188;2022-10-16T05:46:53;146.38;;;97.68;;
26201;SDS011;13944;28.562;77.188;2022-10-16T05:49:20;137.30;;;94.47;;
26201;SDS011;13944;28.562;77.188;2022-10-16T05:51:46;147.70;;;98.53;;
26201;SDS011;13944;28.562;77.188;2022-10-16T05:54:13;127.47;;;93.68;;
26201;SDS011;13944;28.562;77.188;2022-10-16T05:56:39;135.38;;;97.43;;
26201;SDS011;13944;28.562;77.188;2022-10-16T05:59:06;143.43;;;101.18;;
26201;SDS011;13944;28.562;77.188;2022-10-16T06:01:33;154.93;;;104.95;;
26201;SDS011;13944;28.562;77.188;2022-10-16T06:04:00;148.43;;;104.28;;
26201;SDS011;13944;28.562;77.188;2022-10-16T06:06:27;150.75;;;107.97;;
26201;SDS011;13944;28.562;77.188;2022-10-16T06:08:55;150.15;;;110.13;;
26201;SDS011;13944;28.562;77.188;2022-10-16T06:11:24;140.85;;;106.28;;
26201;SDS011;13944;28.562;77.188;2022-10-16T06:13:52;142.30;;;105.72;;
26201;SDS011;13944;28.562;77.188;2022-10-16T06:16:19;137.30;;;103.40;;
26201;SDS011;13944;28.562;77.188;2022-10-16T06:18:46;150.00;;;102.68;;
26201;SDS011;13944;28.562;77.188;2022-10-16T06:21:16;147.30;;;102.53;;
26201;SDS011;13944;28.562;77.188;2022-10-16T06:23:43;142.98;;;105.50;;
26201;SDS011;13944;28.562;77.188;2022-10-16T06:26:12;133.93;;;102.72;;
26201;SDS011;13944;28.562;77.188;2022-10-16T06:28:39;147.40;;;106.13;;
26201;SDS011;13944;28.562;77.188;2022-10-16T06:31:06;130.15;;;97.40;;
26201;SDS011;13944;28.562;77.188;2022-10-16T06:33:33;158.48;;;103.80;;
26201;SDS011;13944;28.562;77.188;2022-10-16T06:36:03;138.40;;;99.40;;
26201;SDS011;13944;28.562;77.188;2022-10-16T06:38:30;146.25;;;99.10;;
26201;SDS011;13944;28.562;77.188;2022-10-16T06:40:57;141.23;;;97.65;;
26201;SDS011;13944;28.562;77.188;2022-10-16T06:43:24;138.15;;;99.03;;
26201;SDS011;13944;28.562;77.188;2022-10-16T06:45:54;128.40;;;93.82;;
26201;SDS011;13944;28.562;77.188;2022-10-16T06:48:21;127.80;;;86.22;;
26201;SDS011;13944;28.562;77.188;2022-10-16T06:51:01;121.90;;;81.75;;
26201;SDS011;13944;28.562;77.188;2022-10-16T06:53:28;126.55;;;79.00;;
26201;SDS011;13944;28.562;77.188;2022-10-16T06:55:55;125.95;;;76.95;;
26201;SDS011;13944;28.562;77.188;2022-10-16T06:58:22;131.50;;;81.03;;
26201;SDS011;13944;28.562;77.188;2022-10-16T07:00:49;122.00;;;75.80;;
26201;SDS011;13944;28.562;77.188;2022-10-16T07:03:21;138.43;;;80.63;;
26201;SDS011;13944;28.562;77.188;2022-10-16T07:05:48;138.77;;;81.90;;
26201;SDS011;13944;28.562;77.188;2022-10-16T07:08:14;130.30;;;77.38;;
26201;SDS011;13944;28.562;77.188;2022-10-16T07:10:41;119.75;;;76.00;;
26201;SDS011;13944;28.562;77.188;2022-10-16T07:13:07;126.40;;;78.65;;
26201;SDS011;13944;28.562;77.188;2022-10-16T07:15:38;116.28;;;79.60;;
26201;SDS011;13944;28.562;77.188;2022-10-16T07:18:05;119.25;;;81.78;;
26201;SDS011;13944;28.562;77.188;2022-10-16T07:20:31;113.35;;;78.03;;
26201;SDS011;13944;28.562;77.188;2022-10-16T07:22:58;129.35;;;84.65;;
26201;SDS011;13944;28.562;77.188;2022-10-16T07:25:24;133.70;;;86.63;;
26201;SDS011;13944;28.562;77.188;2022-10-16T07:27:51;125.57;;;89.38;;
26201;SDS011;13944;28.562;77.188;2022-10-16T07:30:17;134.77;;;87.13;;
26201;SDS011;13944;28.562;77.188;2022-10-16T07:32:44;123.40;;;87.97;;
26201;SDS011;13944;28.562;77.188;2022-10-16T07:35:10;117.78;;;82.88;;
26201;SDS011;13944;28.562;77.188;2022-10-16T07:37:37;127.13;;;81.93;;
26201;SDS011;13944;28.562;77.188;2022-10-16T07:40:04;118.82;;;85.38;;
26201;SDS011;13944;28.562;77.188;2022-10-16T07:42:30;114.68;;;83.43;;
26201;SDS011;13944;28.562;77.188;2022-10-16T07:44:57;115.57;;;84.40;;
26201;SDS011;13944;28.562;77.188;2022-10-16T07:47:23;119.50;;;82.00;;
26201;SDS011;13944;28.562;77.188;2022-10-16T07:49:50;103.53;;;78.22;;
26201;SDS011;13944;28.562;77.188;2022-10-16T07:52:16;118.43;;;82.03;;
26201;SDS011;13944;28.562;77.188;2022-10-16T07:54:43;124.57;;;85.57;;
26201;SDS011;13944;28.562;77.188;2022-10-16T07:57:09;113.60;;;85.05;;
26201;SDS011;13944;28.562;77.188;2022-10-16T07:59:36;114.00;;;80.72;;
26201;SDS011;13944;28.562;77.188;2022-10-16T08:02:02;124.63;;;82.15;;
26201;SDS011;13944;28.562;77.188;2022-10-16T08:04:29;119.13;;;79.75;;
26201;SDS011;13944;28.562;77.188;2022-10-16T08:06:55;110.97;;;78.88;;
26201;SDS011;13944;28.562;77.188;2022-10-16T08:09:22;93.88;;;70.80;;
26201;SDS011;13944;28.562;77.188;2022-10-16T08:11:48;91.72;;;68.13;;
26201;SDS011;13944;28.562;77.188;2022-10-16T08:14:15;100.13;;;70.32;;
26201;SDS011;13944;28.562;77.188;2022-10-16T08:16:41;90.93;;;65.43;;
26201;SDS011;13944;28.562;77.188;2022-10-16T08:19:08;89.63;;;64.45;;
26201;SDS011;13944;28.562;77.188;2022-10-16T08:21:34;91.53;;;66.57;;
26201;SDS011;13944;28.562;77.188;2022-10-16T08:24:01;91.22;;;66.63;;
26201;SDS011;13944;28.562;77.188;2022-10-16T08:26:27;96.45;;;64.07;;
26201;SDS011;13944;28.562;77.188;2022-10-16T08:28:54;102.65;;;62.38;;
26201;SDS011;13944;28.562;77.188;2022-10-16T08:31:21;83.68;;;58.65;;
26201;SDS011;13944;28.562;77.188;2022-10-16T08:33:48;90.90;;;58.22;;
26201;SDS011;13944;28.562;77.188;2022-10-16T08:36:15;81.88;;;56.03;;
26201;SDS011;13944;28.562;77.188;2022-10-16T08:38:42;73.15;;;52.92;;
26201;SDS011;13944;28.562;77.188;2022-10-16T08:49:01;72.95;;;49.83;;
26201;SDS011;13944;28.562;77.188;2022-10-16T08:51:32;77.55;;;50.38;;
26201;SDS011;13944;28.562;77.188;2022-10-16T08:54:02;73.93;;;50.03;;
26201;SDS011;13944;28.562;77.188;2022-10-16T08:56:29;87.18;;;50.90;;
26201;SDS011;13944;28.562;77.188;2022-10-16T08:58:57;75.72;;;49.33;;
26201;SDS011;13944;28.562;77.188;2022-10-16T09:01:24;73.85;;;49.50;;
26201;SDS011;13944;28.562;77.188;2022-10-16T09:04:00;73.00;;;46.25;;
26201;SDS011;13944;28.562;77.188;2022-10-16T09:11:50;81.20;;;45.35;;
26201;SDS011;13944;28.562;77.188;2022-10-16T09:19:50;67.25;;;44.17;;
26201;SDS011;13944;28.562;77.188;2022-10-16T09:22:17;77.95;;;44.70;;
26201;SDS011;13944;28.562;77.188;2022-10-16T09:24:48;97.97;;;47.03;;
26201;SDS011;13944;28.562;77.188;2022-10-16T09:27:15;74.18;;;44.30;;
26201;SDS011;13944;28.562;77.188;2022-10-16T09:29:41;77.50;;;46.50;;
26201;SDS011;13944;28.562;77.188;2022-10-16T09:32:12;98.70;;;49.60;;
26201;SDS011;13944;28.562;77.188;2022-10-16T09:34:54;96.97;;;49.13;;
26201;SDS011;13944;28.562;77.188;2022-10-16T09:37:22;91.22;;;49.33;;
26201;SDS011;13944;28.562;77.188;2022-10-16T09:39:53;78.80;;;48.55;;
26201;SDS011;13944;28.562;77.188;2022-10-16T09:42:33;78.90;;;48.03;;
26201;SDS011;13944;28.562;77.188;2022-10-16T09:45:00;74.10;;;48.33;;
26201;SDS011;13944;28.562;77.188;2022-10-16T09:47:28;80.43;;;49.72;;
26201;SDS011;13944;28.562;77.188;2022-10-16T09:50:03;79.07;;;49.35;;
26201;SDS011;13944;28.562;77.188;2022-10-16T09:52:31;75.72;;;48.92;;
26201;SDS011;13944;28.562;77.188;2022-10-16T09:54:59;84.05;;;49.08;;
26201;SDS011;13944;28.562;77.188;2022-10-16T09:57:26;99.15;;;48.38;;
26201;SDS011;13944;28.562;77.188;2022-10-16T09:59:57;90.32;;;45.13;;
26201;SDS011;13944;28.562;77.188;2022-10-16T10:02:30;117.47;;;44.25;;
26201;SDS011;13944;28.562;77.188;2022-10-16T10:04:57;102.75;;;47.38;;
26201;SDS011;13944;28.562;77.188;2022-10-16T10:07:28;90.65;;;47.90;;
26201;SDS011;13944;28.562;77.188;2022-10-16T10:09:59;93.43;;;48.40;;
26201;SDS011;13944;28.562;77.188;2022-10-16T10:12:27;90.35;;;50.35;;
26201;SDS011;13944;28.562;77.188;2022-10-16T10:17:54;88.07;;;47.90;;
26201;SDS011;13944;28.562;77.188;2022-10-16T10:20:25;85.53;;;48.65;;
26201;SDS011;13944;28.562;77.188;2022-10-16T10:22:53;89.00;;;47.67;;
26201;SDS011;13944;28.562;77.188;2022-10-16T10:30:38;85.35;;;46.63;;
26201;SDS011;13944;28.562;77.188;2022-10-16T10:35:40;90.88;;;46.95;;
26201;SDS011;13944;28.562;77.188;2022-10-16T10:38:24;111.53;;;47.33;;
26201;SDS011;13944;28.562;77.188;2022-10-16T10:43:33;108.80;;;48.00;;
26201;SDS011;13944;28.562;77.188;2022-10-16T10:46:06;86.32;;;46.67;;
26201;SDS011;13944;28.562;77.188;2022-10-16T10:48:42;82.57;;;46.25;;
26201;SDS011;13944;28.562;77.188;2022-10-16T10:51:21;95.55;;;46.30;;
26201;SDS011;13944;28.562;77.188;2022-10-16T11:04:45;77.68;;;45.72;;
26201;SDS011;13944;28.562;77.188;2022-10-16T11:07:08;78.10;;;46.95;;
26201;SDS011;13944;28.562;77.188;2022-10-16T11:09:38;85.25;;;45.45;;
26201;SDS011;13944;28.562;77.188;2022-10-16T11:17:37;73.18;;;46.28;;
26201;SDS011;13944;28.562;77.188;2022-10-16T11:20:04;76.53;;;46.60;;
26201;SDS011;13944;28.562;77.188;2022-10-16T11:22:42;81.55;;;46.72;;
26201;SDS011;13944;28.562;77.188;2022-10-16T11:30:20;89.38;;;47.80;;
26201;SDS011;13944;28.562;77.188;2022-10-16T11:32:57;89.80;;;51.45;;
26201;SDS011;13944;28.562;77.188;2022-10-16T11:35:49;96.82;;;51.35;;
26201;SDS011;13944;28.562;77.188;2022-10-16T11:38:37;92.43;;;54.95;;
26201;SDS011;13944;28.562;77.188;2022-10-16T11:41:03;104.43;;;57.50;;
26201;SDS011;13944;28.562;77.188;2022-10-16T11:43:43;106.32;;;56.55;;
26201;SDS011;13944;28.562;77.188;2022-10-16T11:46:17;109.07;;;58.72;;
26201;SDS011;13944;28.562;77.188;2022-10-16T11:51:16;93.00;;;56.95;;
26201;SDS011;13944;28.562;77.188;2022-10-16T11:53:51;120.75;;;60.42;;
26201;SDS011;13944;28.562;77.188;2022-10-16T11:56:20;192.77;;;70.80;;
26201;SDS011;13944;28.562;77.188;2022-10-16T12:01:22;180.52;;;69.03;;
26201;SDS011;13944;28.562;77.188;2022-10-16T12:08:49;316.65;;;81.63;;
26201;SDS011;13944;28.562;77.188;2022-10-16T12:14:38;223.10;;;68.40;;
26201;SDS011;13944;28.562;77.188;2022-10-16T12:16:53;236.70;;;69.13;;
26201;SDS011;13944;28.562;77.188;2022-10-16T12:19:20;238.98;;;71.75;;
26201;SDS011;13944;28.562;77.188;2022-10-16T12:21:47;168.45;;;60.05;;
26201;SDS011;13944;28.562;77.188;2022-10-16T12:24:50;158.57;;;59.15;;
26201;SDS011;13944;28.562;77.188;2022-10-16T12:27:28;169.23;;;55.50;;
26201;SDS011;13944;28.562;77.188;2022-10-16T12:29:57;127.28;;;55.53;;
26201;SDS011;13944;28.562;77.188;2022-10-16T12:34:51;123.35;;;54.72;;
26201;SDS011;13944;28.562;77.188;2022-10-16T12:37:25;132.82;;;56.63;;
26201;SDS011;13944;28.562;77.188;2022-10-16T12:39:53;116.07;;;55.45;;
26201;SDS011;13944;28.562;77.188;2022-10-16T12:44:53;107.20;;;54.80;;
26201;SDS011;13944;28.562;77.188;2022-10-16T12:47:24;121.18;;;56.38;;
26201;SDS011;13944;28.562;77.188;2022-10-16T12:50:01;102.65;;;54.72;;
26201;SDS011;13944;28.562;77.188;2022-10-16T12:55:00;138.82;;;59.67;;
26201;SDS011;13944;28.562;77.188;2022-10-16T13:00:00;205.93;;;66.13;;
26201;SDS011;13944;28.562;77.188;2022-10-16T13:10:15;127.55;;;57.47;;
26201;SDS011;13944;28.562;77.188;2022-10-16T13:15:22;128.02;;;59.20;;
26201;SDS011;13944;28.562;77.188;2022-10-16T13:18:03;141.55;;;60.95;;
26201;SDS011;13944;28.562;77.188;2022-10-16T13:28:21;149.88;;;65.55;;
26201;SDS011;13944;28.562;77.188;2022-10-16T13:30:55;117.75;;;63.70;;
26201;SDS011;13944;28.562;77.188;2022-10-16T13:33:30;121.65;;;65.70;;
26201;SDS011;13944;28.562;77.188;2022-10-16T13:35:57;131.18;;;70.20;;
26201;SDS011;13944;28.562;77.188;2022-10-16T13:38:26;140.35;;;74.88;;
26201;SDS011;13944;28.562;77.188;2022-10-16T13:40:54;145.15;;;75.13;;
26201;SDS011;13944;28.562;77.188;2022-10-16T13:43:23;145.18;;;71.72;;
26201;SDS011;13944;28.562;77.188;2022-10-16T13:45:54;139.65;;;72.22;;
26201;SDS011;13944;28.562;77.188;2022-10-16T13:48:21;152.10;;;74.68;;
26201;SDS011;13944;28.562;77.188;2022-10-16T13:50:58;153.48;;;72.30;;
26201;SDS011;13944;28.562;77.188;2022-10-16T13:53:24;136.27;;;69.82;;
26201;SDS011;13944;28.562;77.188;2022-10-16T13:55:51;145.35;;;75.63;;
26201;SDS011;13944;28.562;77.188;2022-10-16T13:58:17;145.23;;;75.68;;
26201;SDS011;13944;28.562;77.188;2022-10-16T14:01:01;206.13;;;79.47;;
26201;SDS011;13944;28.562;77.188;2022-10-16T14:03:28;161.45;;;77.03;;
26201;SDS011;13944;28.562;77.188;2022-10-16T14:05:57;152.88;;;80.55;;
26201;SDS011;13944;28.562;77.188;2022-10-16T14:08:24;141.27;;;81.03;;
26201;SDS011;13944;28.562;77.188;2022-10-16T14:10:58;143.25;;;77.78;;
26201;SDS011;13944;28.562;77.188;2022-10-16T14:13:39;122.28;;;78.57;;
26201;SDS011;13944;28.562;77.188;2022-10-16T14:16:10;137.13;;;79.88;;
26201;SDS011;13944;28.562;77.188;2022-10-16T14:18:37;137.18;;;81.22;;
26201;SDS011;13944;28.562;77.188;2022-10-16T14:21:10;156.73;;;79.45;;
26201;SDS011;13944;28.562;77.188;2022-10-16T14:23:39;158.93;;;80.43;;
26201;SDS011;13944;28.562;77.188;2022-10-16T14:28:36;137.60;;;79.82;;
26201;SDS011;13944;28.562;77.188;2022-10-16T14:33:50;142.85;;;78.75;;
26201;SDS011;13944;28.562;77.188;2022-10-16T14:36:17;132.43;;;79.53;;
26201;SDS011;13944;28.562;77.188;2022-10-16T14:39:03;132.23;;;77.97;;
26201;SDS011;13944;28.562;77.188;2022-10-16T14:41:31;124.65;;;76.93;;
26201;SDS011;13944;28.562;77.188;2022-10-16T14:44:02;126.25;;;78.03;;
26201;SDS011;13944;28.562;77.188;2022-10-16T14:46:31;134.88;;;81.95;;
26201;SDS011;13944;28.562;77.188;2022-10-16T14:49:00;146.77;;;82.78;;
26201;SDS011;13944;28.562;77.188;2022-10-16T14:51:27;142.48;;;85.03;;
26201;SDS011;13944;28.562;77.188;2022-10-16T14:53:53;160.95;;;89.63;;
26201;SDS011;13944;28.562;77.188;2022-10-16T14:56:24;154.10;;;89.88;;
26201;SDS011;13944;28.562;77.188;2022-10-16T14:58:51;148.40;;;90.97;;
26201;SDS011;13944;28.562;77.188;2022-10-16T15:01:19;160.68;;;89.68;;
26201;SDS011;13944;28.562;77.188;2022-10-16T15:03:45;155.07;;;87.05;;
26201;SDS011;13944;28.562;77.188;2022-10-16T15:06:13;154.13;;;96.25;;
26201;SDS011;13944;28.562;77.188;2022-10-16T15:08:39;148.60;;;88.47;;
26201;SDS011;13944;28.562;77.188;2022-10-16T15:11:13;148.23;;;89.65;;
26201;SDS011;13944;28.562;77.188;2022-10-16T15:13:40;137.20;;;86.13;;
26201;SDS011;13944;28.562;77.188;2022-10-16T15:16:10;148.70;;;81.97;;
26201;SDS011;13944;28.562;77.188;2022-10-16T15:18:37;133.00;;;82.43;;
26201;SDS011;13944;28.562;77.188;2022-10-16T15:21:04;139.77;;;83.95;;
26201;SDS011;13944;28.562;77.188;2022-10-16T15:23:31;143.35;;;91.05;;
26201;SDS011;13944;28.562;77.188;2022-10-16T15:25:57;152.95;;;98.18;;
26201;SDS011;13944;28.562;77.188;2022-10-16T15:28:24;144.40;;;89.32;;
26201;SDS011;13944;28.562;77.188;2022-10-16T15:30:52;148.35;;;87.57;;
26201;SDS011;13944;28.562;77.188;2022-10-16T15:33:20;142.05;;;92.03;;
26201;SDS011;13944;28.562;77.188;2022-10-16T15:35:50;158.10;;;83.30;;
26201;SDS011;13944;28.562;77.188;2022-10-16T15:38:18;129.38;;;80.88;;
26201;SDS011;13944;28.562;77.188;2022-10-16T15:40:45;122.75;;;74.78;;
26201;SDS011;13944;28.562;77.188;2022-10-16T15:43:12;127.43;;;73.05;;
26201;SDS011;13944;28.562;77.188;2022-10-16T15:45:39;119.65;;;70.53;;
26201;SDS011;13944;28.562;77.188;2022-10-16T15:48:10;121.28;;;69.93;;
26201;SDS011;13944;28.562;77.188;2022-10-16T15:50:38;112.53;;;69.47;;
26201;SDS011;13944;28.562;77.188;2022-10-16T15:53:04;107.93;;;67.28;;
26201;SDS011;13944;28.562;77.188;2022-10-16T15:55:31;120.20;;;69.15;;